Joplin, MO (64804)

12:16 PM CST on December 07, 2016 (GMT -0600)
Ohio Ave | | Change Station

Elev 1020 ft 37.07 °N, 94.50 °W | Updated 58 seconds ago

Overcast
Overcast
36.5 °F
Feels Like 36 °F
N
2.0
Wind Variable Wind from East

Today
High -- | Low -- °F
--% Chance of Precip.
Yesterday
High -- | Low -- °F
Precip. -- in
Pressure 30.27 in
Visibility 10.0 miles
Clouds Overcast 6000 ft
Windchill 36 °F
Dew Point 18 °F
Humidity 48%
Rainfall 0.00 in
Snow Depth Not available.
7:18 AM 5:00 PM
First Quarter, 54% visible
METAR KJLN 071753Z 05006KT 10SM OVC060 02/M08 A3024 RMK AO2 SLP248 T00221078 10022 21006 50010
Pressure 30.27 in
Visibility 10.0 miles
Clouds Overcast 6000 ft
Windchill 36 °F
Dew Point 18 °F
Humidity 48%
Rainfall 0.00 in
Snow Depth Not available.
7:18 AM 5:00 PM
First Quarter, 54% visible
METAR KJLN 071753Z 05006KT 10SM OVC060 02/M08 A3024 RMK AO2 SLP248 T00221078 10022 21006 50010

10-Day Weather Forecast

Almanac

Astronomy

Dec. 07, 2016 Rise Set
Actual Time
Civil Twilight
Nautical Twilight
Astronomical Twilight
Moon
Length of Visible Light
Length of Day
Tomorrow will be .
, % of the Moon is Illuminated

Today's Extremes

State Highs State Lows

Community

WunderPhotos

Upload Photos

1,956,157 photos uploaded!

WunderBlog® & News

Nearby

Air Quality

  Air Quality AQ Index Pollutant
Not available.

Snow Depth

Station Depth Elevation

Earthquake Activity

City Distance Mag. Time & Date
Minimum magnitude displayed is 2.5.

Coastal Water Temperatures

Place Temperature

Stations

Nearby Weather Stations

Station Location Temp. Windchill Dew Point Humidity Wind Precip. Elev Updated Type
                   

Watches & Warnings

There are currently no watches in effect.